Time;durP1;ratioP1;P1;durP2;ratioP2;P2;SDS_P1;SDS_P2;PMS_P1;PMS_P2;Temp;Humidity;BMP_temperature;BMP_pressure;BME280_temperature;BME280_humidity;BME280_pressure;Samples;Min_cycle;Max_cycle;Signal;HPM_P1;HPM_P2
2022/06/21 00:02:01;;;;;;;10.38;3.92;;;;;;;29.11;31.85;101170.09;5049272;28;20035;-60
2022/06/21 00:04:28;;;;;;;7.25;3.60;;;;;;;29.69;30.02;101158.56;5033587;28;20038;-60
2022/06/21 00:06:56;;;;;;;11.23;3.65;;;;;;;29.85;30.11;101160.81;5012960;28;20478;-65
2022/06/21 00:09:23;;;;;;;10.00;3.55;;;;;;;29.75;31.04;101152.88;5019377;28;20536;-65
2022/06/21 00:11:50;;;;;;;10.60;3.97;;;;;;;29.61;30.54;101145.59;5049294;28;20031;-66
2022/06/21 00:14:16;;;;;;;11.88;3.65;;;;;;;29.02;31.41;101150.78;5032243;28;20041;-65
2022/06/21 00:16:43;;;;;;;13.75;4.30;;;;;;;29.53;31.56;101153.88;5031386;28;20037;-65
2022/06/21 00:19:18;;;;;;;12.05;3.63;;;;;;;28.80;31.25;101142.63;5027584;28;20040;-65
2022/06/21 00:21:46;;;;;;;8.93;3.33;;;;;;;29.15;31.15;101144.31;5061629;28;20033;-65
2022/06/21 00:24:13;;;;;;;7.55;3.80;;;;;;;28.77;30.77;101135.81;5053893;28;20031;-65
2022/06/21 00:26:40;;;;;;;11.23;4.40;;;;;;;28.33;33.61;101136.84;5070328;28;20024;-66
2022/06/21 00:29:06;;;;;;;10.93;4.20;;;;;;;29.00;32.16;101135.72;5073754;28;20045;-66
2022/06/21 00:31:35;;;;;;;9.23;3.92;;;;;;;28.64;31.09;101134.00;5073463;28;20469;-66
2022/06/21 00:34:15;;;;;;;10.75;3.88;;;;;;;29.04;31.50;101126.47;5055693;28;20029;-64
2022/06/21 00:36:41;;;;;;;9.65;4.00;;;;;;;28.88;31.17;101125.31;5073400;28;20031;-65
2022/06/21 00:39:11;;;;;;;14.15;4.32;;;;;;;27.68;33.93;101126.41;5073283;28;20048;-63
2022/06/21 00:41:40;;;;;;;12.80;4.03;;;;;;;28.38;33.17;101121.00;5056400;28;20104;-63
2022/06/21 00:44:11;;;;;;;10.48;4.47;;;;;;;27.76;33.97;101123.75;5058207;28;20046;-63
2022/06/21 00:46:45;;;;;;;12.70;4.25;;;;;;;27.29;34.49;101116.94;5056173;28;20540;-63
2022/06/21 00:49:24;;;;;;;17.42;4.75;;;;;;;27.01;34.84;101111.50;5073314;28;20396;-63
2022/06/21 00:51:57;;;;;;;14.00;4.30;;;;;;;27.40;35.43;101115.56;5071112;28;20020;-63
2022/06/21 00:54:34;;;;;;;10.10;4.55;;;;;;;27.46;34.35;101110.75;5073312;28;20492;-63
2022/06/21 00:57:11;;;;;;;12.55;4.20;;;;;;;27.82;33.65;101118.94;5072937;28;20445;-63
2022/06/21 00:59:39;;;;;;;13.50;4.32;;;;;;;27.51;34.72;101114.19;5100054;22;20135;-63
2022/06/21 01:02:17;;;;;;;14.63;4.57;;;;;;;27.60;34.78;101122.50;5092835;28;20510;-63
2022/06/21 01:04:48;;;;;;;12.57;4.90;;;;;;;27.01;35.00;101111.50;5085441;28;20035;-62
2022/06/21 01:07:15;;;;;;;13.82;4.45;;;;;;;26.74;35.59;101120.63;5086538;28;20023;-62
2022/06/21 01:09:43;;;;;;;12.60;4.43;;;;;;;27.16;35.37;101106.81;5092587;28;20031;-64
2022/06/21 01:12:36;;;;;;;16.50;4.75;;;;;;;26.83;35.55;101117.97;5083096;28;20062;-62
2022/06/21 01:15:07;;;;;;;17.40;5.20;;;;;;;25.82;37.35;101118.03;5084374;28;20044;-60
2022/06/21 01:17:35;;;;;;;12.52;4.93;;;;;;;26.12;37.15;101113.91;5088925;28;20430;-63
2022/06/21 01:20:09;;;;;;;13.50;4.80;;;;;;;25.68;37.29;101113.31;5086632;28;20039;-61
2022/06/21 01:23:02;;;;;;;11.50;4.13;;;;;;;25.28;38.41;101114.81;5091656;28;20052;-64
2022/06/21 01:25:40;;;;;;;15.65;4.05;;;;;;;26.01;37.47;101111.38;5075589;28;20028;-61
2022/06/21 01:28:08;;;;;;;12.13;4.50;;;;;;;25.43;38.75;101111.81;5093116;28;20032;-61
2022/06/21 01:30:35;;;;;;;12.85;4.72;;;;;;;25.30;37.57;101112.56;5075347;28;20035;-61
2022/06/21 01:33:02;;;;;;;15.15;4.78;;;;;;;25.69;37.45;101114.13;5092439;28;20036;-61
2022/06/21 01:35:41;;;;;;;15.38;4.97;;;;;;;25.45;38.15;101115.06;5087942;28;20081;-61
2022/06/21 01:38:13;;;;;;;16.00;4.63;;;;;;;25.33;37.89;101117.47;5081849;28;20473;-59
2022/06/21 01:40:49;;;;;;;14.93;4.88;;;;;;;24.71;38.96;101111.22;5073339;28;20028;-62
2022/06/21 01:43:23;;;;;;;16.42;4.30;;;;;;;25.43;37.81;101119.19;5092660;28;20103;-63
2022/06/21 01:46:03;;;;;;;14.88;4.53;;;;;;;24.36;39.45;101115.19;5091151;28;20024;-63
2022/06/21 01:48:41;;;;;;;16.13;4.18;;;;;;;25.41;38.06;101108.53;5092521;28;20165;-63
2022/06/21 01:51:11;;;;;;;13.40;4.13;;;;;;;25.87;37.12;101106.97;5086234;28;20027;-58
2022/06/21 01:53:39;;;;;;;16.35;4.72;;;;;;;25.93;36.67;101112.09;5063229;28;20029;-58
2022/06/21 01:56:18;;;;;;;11.48;4.10;;;;;;;26.71;35.80;101106.72;5059285;28;20074;-59
2022/06/21 01:58:52;;;;;;;14.48;4.95;;;;;;;26.93;35.56;101109.50;5051391;28;20040;-59
2022/06/21 02:01:27;;;;;;;14.10;4.57;;;;;;;26.27;36.06;101108.94;5071799;28;20028;-59
2022/06/21 02:03:58;;;;;;;11.85;4.03;;;;;;;26.75;35.11;101103.00;5071782;28;20060;-57
2022/06/21 02:06:30;;;;;;;12.13;4.43;;;;;;;27.27;34.03;101102.69;5072029;28;20401;-58
2022/06/21 02:09:03;;;;;;;15.05;4.68;;;;;;;27.79;33.40;101111.31;5072066;28;20369;-57
2022/06/21 02:11:51;;;;;;;12.48;4.30;;;;;;;28.31;32.65;101103.25;5055915;28;20493;-57
2022/06/21 02:14:29;;;;;;;15.00;4.28;;;;;;;28.26;32.61;101106.16;5072029;28;20035;-57
2022/06/21 02:17:19;;;;;;;14.32;4.28;;;;;;;28.57;33.34;101104.19;5056178;28;20036;-57
2022/06/21 02:19:55;;;;;;;12.85;4.35;;;;;;;28.54;31.98;101107.59;5037206;28;20033;-57
2022/06/21 02:22:25;;;;;;;10.63;3.72;;;;;;;28.77;31.59;101108.28;5051718;28;20025;-57
2022/06/21 02:24:53;;;;;;;12.80;4.35;;;;;;;29.30;30.90;101112.66;5062573;28;20024;-57
2022/06/21 02:27:23;;;;;;;13.70;4.32;;;;;;;27.72;33.52;101111.75;5066717;28;20025;-58
2022/06/21 02:29:55;;;;;;;14.85;4.93;;;;;;;28.77;32.73;101101.97;5069416;28;20025;-57
2022/06/21 02:32:42;;;;;;;12.98;5.20;;;;;;;29.56;31.32;101101.63;5061787;28;20461;-58
2022/06/21 02:35:39;;;;;;;11.77;4.60;;;;;;;29.40;30.79;101101.31;5071783;28;20067;-58
2022/06/21 02:38:20;;;;;;;13.60;7.40;;;;;;;29.79;29.75;101098.66;5071104;28;20020;-58
2022/06/21 02:40:58;;;;;;;15.15;4.90;;;;;;;27.85;33.22;101099.84;5071611;28;20384;-58
2022/06/21 02:43:36;;;;;;;14.10;4.78;;;;;;;28.99;31.36;101101.84;5064464;28;20032;-57
2022/06/21 02:46:18;;;;;;;13.93;4.82;;;;;;;29.15;31.28;101097.47;5066979;28;20377;-57
2022/06/21 02:49:07;;;;;;;14.75;4.57;;;;;;;29.37;30.64;101095.63;5051241;28;20044;-57
2022/06/21 02:51:44;;;;;;;15.68;5.68;;;;;;;30.01;30.60;101092.09;5050498;28;20151;-57
2022/06/21 02:54:13;;;;;;;11.70;4.80;;;;;;;30.37;29.54;101091.59;5067565;28;20511;-58
2022/06/21 02:56:47;;;;;;;13.75;4.97;;;;;;;30.29;29.39;101098.00;5071781;28;20158;-58
2022/06/21 02:59:15;;;;;;;9.20;4.50;;;;;;;30.42;29.11;101086.69;5071336;28;20106;-58
2022/06/21 03:01:49;;;;;;;12.70;4.75;;;;;;;30.17;29.32;101085.72;5070663;28;20032;-58
2022/06/21 03:04:23;;;;;;;15.10;4.97;;;;;;;30.09;29.81;101081.00;5071576;28;20020;-58
2022/06/21 03:06:51;;;;;;;10.68;4.50;;;;;;;30.08;30.43;101084.91;5065181;28;20025;-57
2022/06/21 03:09:22;;;;;;;16.67;5.00;;;;;;;30.01;30.31;101076.34;5055422;28;20151;-57
2022/06/21 03:11:52;;;;;;;9.23;4.65;;;;;;;29.84;30.04;101084.69;5055067;28;20025;-58
2022/06/21 03:14:23;;;;;;;14.40;4.75;;;;;;;29.64;30.80;101081.50;5054964;28;20025;-57
2022/06/21 03:16:54;;;;;;;13.73;5.00;;;;;;;29.42;30.28;101082.47;5072584;28;20032;-57
2022/06/21 03:19:36;;;;;;;12.65;4.47;;;;;;;29.03;31.57;101080.75;5042036;28;20103;-58
2022/06/21 03:22:10;;;;;;;13.30;5.68;;;;;;;28.63;31.65;101080.03;5057036;28;20188;-58
2022/06/21 03:24:37;;;;;;;;;;;;;;;28.50;32.12;101081.00;5075458;28;20052;-57
2022/06/21 03:27:12;;;;;;;15.02;5.38;;;;;;;28.15;32.47;101078.94;5074996;28;19927;-57
2022/06/21 03:29:39;;;;;;;16.25;5.38;;;;;;;27.89;33.57;101075.28;5074910;28;20032;-58
2022/06/21 03:32:06;;;;;;;12.93;4.72;;;;;;;27.60;33.89;101075.75;5074728;28;20025;-58
2022/06/21 03:34:33;;;;;;;16.83;5.22;;;;;;;27.32;34.90;101077.84;5073034;28;20043;-58
2022/06/21 03:37:00;;;;;;;15.98;4.88;;;;;;;26.69;35.94;101073.25;5073938;28;20028;-57
2022/06/21 03:42:17;;;;;;;15.02;5.28;;;;;;;26.45;36.51;101079.78;5075020;28;20051;-57
2022/06/21 03:45:09;;;;;;;17.58;5.47;;;;;;;26.11;37.28;101068.41;5074441;28;20111;-57
2022/06/21 03:47:43;;;;;;;16.17;5.00;;;;;;;25.67;38.14;101083.47;5063353;28;20045;-58
2022/06/21 03:50:26;;;;;;;20.58;5.53;;;;;;;25.50;38.50;101081.28;5054734;28;20535;-60
2022/06/21 03:52:58;;;;;;;16.33;4.32;;;;;;;25.21;38.93;101087.78;5056741;28;20041;-57
2022/06/21 03:55:36;;;;;;;17.80;5.00;;;;;;;25.06;39.71;101084.47;5054756;28;20083;-59
2022/06/21 03:58:12;;;;;;;14.63;4.90;;;;;;;24.82;40.41;101087.22;5020912;28;20045;-57
2022/06/21 04:00:47;;;;;;;21.35;5.90;;;;;;;24.64;40.80;101091.59;5055541;28;20056;-57
2022/06/21 04:03:22;;;;;;;17.55;5.97;;;;;;;24.52;41.34;101093.94;5039021;28;20060;-59
2022/06/21 04:05:59;;;;;;;15.00;5.32;;;;;;;24.45;41.48;101092.38;5057576;28;20029;-58
2022/06/21 04:08:42;;;;;;;19.10;5.60;;;;;;;24.27;42.26;101092.31;5075300;28;20025;-58
2022/06/21 04:11:33;;;;;;;14.85;4.95;;;;;;;23.94;43.05;101090.22;5071038;28;20027;-58
2022/06/21 04:14:13;;;;;;;14.05;5.25;;;;;;;23.84;43.43;101093.03;5056307;28;20020;-58
2022/06/21 04:16:44;;;;;;;19.55;6.18;;;;;;;23.72;43.75;101089.06;5073755;28;20037;-59
2022/06/21 04:19:20;;;;;;;19.33;5.63;;;;;;;23.53;44.26;101091.66;5071046;28;20029;-58
2022/06/21 04:22:27;;;;;;;20.63;5.28;;;;;;;23.61;44.39;101088.31;5074051;28;20111;-59
2022/06/21 04:25:29;;;;;;;17.15;5.25;;;;;;;23.24;45.47;101089.69;5073155;28;20056;-58
2022/06/21 04:28:47;;;;;;;15.75;5.18;;;;;;;23.15;45.71;101091.41;5031524;28;20035;-58
2022/06/21 04:31:39;;;;;;;20.33;5.88;;;;;;;22.95;45.78;101086.09;5062511;28;20687;-58
2022/06/21 04:34:26;;;;;;;20.27;6.20;;;;;;;23.00;46.10;101088.78;5067293;28;20043;-58
2022/06/21 04:37:00;;;;;;;15.27;5.40;;;;;;;22.78;46.28;101092.72;5067715;28;20095;-58
2022/06/21 04:39:39;;;;;;;18.93;5.70;;;;;;;22.92;46.42;101090.19;5055892;28;20029;-58
2022/06/21 04:42:17;;;;;;;13.02;4.85;;;;;;;22.74;46.46;101094.34;5073217;28;20028;-58
2022/06/21 04:44:55;;;;;;;17.42;5.03;;;;;;;22.77;46.73;101098.47;5052576;28;20524;-58
2022/06/21 04:47:33;;;;;;;21.52;6.38;;;;;;;22.55;47.07;101105.09;5065265;28;20081;-58
2022/06/21 04:50:17;;;;;;;20.27;5.53;;;;;;;22.48;47.44;101095.56;5055500;28;20031;-58
2022/06/21 04:52:56;;;;;;;14.90;5.65;;;;;;;22.55;46.51;101099.66;5069149;28;20024;-58
2022/06/21 04:55:34;;;;;;;17.05;5.60;;;;;;;22.41;47.26;101106.78;5073482;28;20078;-58
2022/06/21 04:58:00;;;;;;;17.60;4.90;;;;;;;22.28;47.51;101100.03;5073180;28;20094;-58
2022/06/21 05:00:27;;;;;;;18.15;5.60;;;;;;;22.20;46.95;101097.84;5073440;28;20131;-58
2022/06/21 05:03:00;;;;;;;19.58;5.90;;;;;;;22.02;47.98;101101.16;5055625;28;20044;-58
2022/06/21 05:05:37;;;;;;;17.15;5.47;;;;;;;21.98;47.56;101091.88;5066987;28;20028;-58
2022/06/21 05:08:19;;;;;;;18.02;5.25;;;;;;;22.07;47.67;101098.41;5073500;28;20037;-58
2022/06/21 05:10:49;;;;;;;17.67;5.88;;;;;;;21.87;47.70;101097.34;5073018;28;20078;-58
2022/06/21 05:13:32;;;;;;;17.13;4.70;;;;;;;22.03;47.02;101095.41;5072888;28;20019;-59
2022/06/21 05:16:10;;;;;;;11.82;4.75;;;;;;;21.71;47.79;101105.81;5057437;28;20122;-58
2022/06/21 05:18:44;;;;;;;15.32;5.40;;;;;;;22.07;46.88;101104.69;5060297;28;20064;-58
2022/06/21 05:21:18;;;;;;;14.67;5.20;;;;;;;21.64;48.05;101094.38;5052483;28;20025;-58
2022/06/21 05:23:46;;;;;;;14.55;4.70;;;;;;;21.72;47.79;101097.38;5052468;28;20308;-58
2022/06/21 05:26:24;;;;;;;18.92;5.30;;;;;;;21.65;48.16;101104.19;5052211;28;20028;-58
2022/06/21 05:29:02;;;;;;;12.32;5.53;;;;;;;21.57;49.00;101113.75;5052829;28;20396;-58
2022/06/21 05:31:34;;;;;;;23.40;6.15;;;;;;;21.60;49.36;101107.75;5051516;28;20039;-58
2022/06/21 05:34:30;;;;;;;16.67;5.22;;;;;;;21.32;49.69;101112.66;5064580;28;20028;-56
2022/06/21 05:37:02;;;;;;;18.02;5.80;;;;;;;21.31;50.17;101108.28;5055682;28;20052;-55
2022/06/21 05:39:35;;;;;;;16.70;6.28;;;;;;;21.33;51.11;101106.13;5051978;28;20108;-57
2022/06/21 05:42:06;;;;;;;16.98;5.63;;;;;;;21.27;50.98;101107.16;5058590;28;20393;-57
2022/06/21 05:44:37;;;;;;;17.33;5.85;;;;;;;21.24;51.73;101106.88;5071998;28;20031;-57
2022/06/21 05:47:34;;;;;;;12.82;5.45;;;;;;;21.18;52.21;101107.97;5054067;28;20119;-57
2022/06/21 05:50:03;;;;;;;24.25;5.63;;;;;;;21.06;52.53;101097.34;5037758;28;20381;-57
2022/06/21 05:52:37;;;;;;;19.80;5.88;;;;;;;21.06;52.39;101109.03;5071372;28;20020;-57
2022/06/21 05:55:06;;;;;;;18.23;4.95;;;;;;;20.91;52.70;101106.28;5065129;28;20029;-57
2022/06/21 05:58:13;;;;;;;26.35;5.28;;;;;;;21.01;52.81;101103.56;5051953;28;20029;-57
2022/06/21 06:01:06;;;;;;;19.00;5.50;;;;;;;20.77;53.29;101103.25;5070382;28;20064;-57
2022/06/21 06:03:56;;;;;;;17.40;4.80;;;;;;;20.72;53.73;101105.16;5070900;28;20033;-57
2022/06/21 06:06:22;;;;;;;20.33;5.57;;;;;;;20.41;54.25;101110.41;5071628;28;20092;-57
2022/06/21 06:08:54;;;;;;;19.95;5.50;;;;;;;20.68;53.41;101101.31;5069573;28;20519;-57
2022/06/21 06:11:57;;;;;;;22.52;6.10;;;;;;;20.48;53.93;101100.13;5071310;28;20020;-56
2022/06/21 06:14:15;;;;;;;16.50;5.07;;;;;;;20.46;53.83;101102.31;5067700;28;20031;-57
2022/06/21 06:16:43;;;;;;;18.00;5.90;;;;;;;20.25;54.47;101108.69;5070399;28;20020;-57
2022/06/21 06:19:17;;;;;;;18.52;5.40;;;;;;;20.18;54.67;101097.25;5051844;28;20025;-56
2022/06/21 06:22:07;;;;;;;19.87;5.83;;;;;;;20.14;54.88;101099.66;5051373;28;20035;-57
2022/06/21 06:25:05;;;;;;;22.25;5.70;;;;;;;20.02;54.54;101096.34;5059336;28;20485;-57
2022/06/21 06:27:35;;;;;;;18.08;4.80;;;;;;;19.95;55.01;101098.50;5064809;28;20048;-57
2022/06/21 06:30:05;;;;;;;21.75;5.78;;;;;;;20.00;54.87;101093.91;5041446;28;20033;-57
2022/06/21 06:32:42;;;;;;;25.50;5.55;;;;;;;19.95;55.05;101096.59;5039777;28;20374;-57
2022/06/21 06:35:23;;;;;;;17.30;4.85;;;;;;;19.68;55.44;101095.84;5071930;28;20036;-57
2022/06/21 06:37:50;;;;;;;17.08;5.43;;;;;;;19.74;55.27;101105.66;5069699;28;20020;-58
2022/06/21 06:40:31;;;;;;;13.35;5.13;;;;;;;19.63;55.54;101088.47;5069153;28;20477;-57
2022/06/21 06:43:03;;;;;;;19.52;5.50;;;;;;;19.76;55.44;101098.88;5074745;28;20020;-57
2022/06/21 06:45:34;;;;;;;20.25;5.80;;;;;;;19.59;55.91;101095.50;5040246;28;20123;-57
2022/06/21 06:48:06;;;;;;;20.85;5.50;;;;;;;19.46;56.00;101096.72;5075409;28;20032;-57
2022/06/21 06:50:44;;;;;;;17.20;5.32;;;;;;;19.52;55.79;101100.31;5074063;28;20028;-57
2022/06/21 06:53:14;;;;;;;17.40;5.55;;;;;;;19.48;55.95;101099.19;5056322;28;20028;-57
2022/06/21 06:55:50;;;;;;;22.08;6.25;;;;;;;19.39;55.89;101096.13;5074064;28;20340;-57
2022/06/21 06:58:41;;;;;;;17.45;5.72;;;;;;;19.30;56.53;101097.69;5074138;28;20097;-58
2022/06/21 07:01:24;;;;;;;15.50;5.32;;;;;;;19.46;56.37;101087.78;5074422;28;20091;-58
2022/06/21 07:04:03;;;;;;;16.75;6.05;;;;;;;19.22;56.74;101085.41;5074432;28;20430;-57
2022/06/21 07:06:47;;;;;;;27.33;6.53;;;;;;;19.34;56.47;101081.69;5074879;28;20056;-58
2022/06/21 07:09:46;;;;;;;23.42;5.88;;;;;;;19.19;57.37;101091.34;5074404;28;20028;-57
2022/06/21 07:12:24;;;;;;;19.98;5.75;;;;;;;19.09;57.79;101091.22;5071481;28;20039;-58
2022/06/21 07:14:52;;;;;;;25.02;6.35;;;;;;;18.85;58.08;101084.47;5057677;28;20028;-57
2022/06/21 07:17:39;;;;;;;20.85;5.88;;;;;;;19.03;57.93;101086.03;5073859;28;20485;-57
2022/06/21 07:20:25;;;;;;;23.40;6.70;;;;;;;19.01;57.66;101091.72;5073844;28;20074;-58
2022/06/21 07:22:58;;;;;;;25.20;6.38;;;;;;;18.75;58.58;101090.59;5073330;28;20388;-58
2022/06/21 07:25:40;;;;;;;18.50;5.93;;;;;;;18.87;58.07;101085.03;5074043;28;20039;-58
2022/06/21 07:28:45;;;;;;;21.75;6.00;;;;;;;18.88;58.10;101086.69;5072905;28;20032;-57
2022/06/21 07:31:21;;;;;;;18.05;5.47;;;;;;;19.07;57.71;101084.44;5073771;28;20355;-57
2022/06/21 07:33:49;;;;;;;16.08;5.15;;;;;;;18.81;57.97;101076.03;5073791;28;20025;-58
2022/06/21 07:36:21;;;;;;;23.45;6.95;;;;;;;18.99;57.61;101072.97;5073122;28;20033;-58
2022/06/21 07:39:05;;;;;;;13.75;5.10;;;;;;;18.70;58.30;101075.09;5074812;28;20036;-58
2022/06/21 07:41:38;;;;;;;21.23;5.93;;;;;;;18.62;58.56;101077.41;5073473;28;20032;-58
2022/06/21 07:44:35;;;;;;;19.45;6.00;;;;;;;18.87;58.03;101068.75;5072648;28;20032;-58
2022/06/21 07:47:10;;;;;;;22.38;5.25;;;;;;;18.97;57.79;101058.84;5054967;28;20414;-58
2022/06/21 07:49:45;;;;;;;25.40;6.85;;;;;;;18.82;57.96;101066.00;5073041;28;20021;-58
2022/06/21 07:52:34;;;;;;;19.63;6.15;;;;;;;18.69;58.40;101073.47;5073251;28;20031;-58
2022/06/21 07:55:07;;;;;;;21.33;6.43;;;;;;;18.68;58.32;101071.00;5056690;28;20067;-58
2022/06/21 07:57:42;;;;;;;22.55;6.75;;;;;;;18.79;58.36;101056.50;5072992;28;20481;-57
2022/06/21 08:00:18;;;;;;;25.27;6.13;;;;;;;18.82;58.38;101055.16;5058773;28;20036;-57
2022/06/21 08:08:55;;;;;;;17.95;5.90;;;;;;;18.28;59.79;101052.34;5062955;28;20147;-57
2022/06/21 08:11:43;;;;;;;21.73;5.97;;;;;;;18.22;59.42;101046.06;5071557;28;20028;-57
2022/06/21 08:14:11;;;;;;;16.52;5.38;;;;;;;17.99;59.64;101044.41;5069703;28;20028;-57
2022/06/21 08:16:54;;;;;;;21.65;5.65;;;;;;;17.96;59.69;101052.19;5073032;28;20118;-57
2022/06/21 08:19:46;;;;;;;26.90;6.63;;;;;;;17.94;60.45;101038.91;5072603;28;20028;-57
2022/06/21 08:22:18;;;;;;;22.38;6.10;;;;;;;18.02;60.37;101043.88;5073380;28;20051;-57
2022/06/21 08:25:07;;;;;;;18.67;6.20;;;;;;;18.23;59.49;101041.44;5073003;28;20119;-58
2022/06/21 08:27:45;;;;;;;20.55;6.28;;;;;;;17.97;59.91;101032.97;5072552;28;20036;-58
2022/06/21 08:30:40;;;;;;;28.55;6.28;;;;;;;18.09;59.78;101028.25;5072445;28;20028;-57
2022/06/21 08:33:11;;;;;;;23.25;6.65;;;;;;;18.06;59.42;101026.06;5071210;28;20058;-57
2022/06/21 08:35:47;;;;;;;23.10;5.95;;;;;;;18.13;59.34;101026.69;5072827;28;20040;-57
2022/06/21 08:38:35;;;;;;;19.92;5.97;;;;;;;17.97;59.95;101032.97;5073309;28;20025;-57
2022/06/21 08:44:38;;;;;;;30.73;6.80;;;;;;;17.78;60.60;101034.34;5053302;28;20098;-57
2022/06/21 08:47:25;;;;;;;22.05;6.20;;;;;;;17.73;60.32;101032.38;5067165;28;20060;-57
2022/06/21 08:50:19;;;;;;;21.15;5.47;;;;;;;17.83;60.15;101032.53;5072216;28;20154;-57
2022/06/21 08:53:04;;;;;;;24.85;6.18;;;;;;;17.76;60.34;101028.34;5078532;22;20044;-57
2022/06/21 08:55:45;;;;;;;27.92;6.80;;;;;;;17.76;59.46;101025.63;5072379;28;20473;-57
2022/06/21 08:58:17;;;;;;;21.23;5.55;;;;;;;17.81;59.00;101031.13;5071311;28;20043;-57
2022/06/21 09:00:55;;;;;;;23.88;5.68;;;;;;;17.57;59.11;101022.38;5071518;28;20514;-58
2022/06/21 09:03:52;;;;;;;14.88;4.55;;;;;;;17.67;56.93;101023.34;5070200;28;20170;-57
2022/06/21 09:06:22;;;;;;;11.23;3.75;;;;;;;17.76;55.22;101022.94;5055360;28;20511;-57
2022/06/21 09:09:13;;;;;;;17.25;4.57;;;;;;;17.54;56.26;101033.66;5073779;28;20036;-58
2022/06/21 09:11:45;;;;;;;6.90;3.28;;;;;;;17.71;54.62;101033.66;5070709;28;20035;-57
2022/06/21 09:14:33;;;;;;;9.23;3.42;;;;;;;17.43;55.18;101032.69;5072586;28;20028;-58
2022/06/21 09:17:13;;;;;;;8.95;2.75;;;;;;;17.32;53.83;101030.88;5071025;28;20017;-58
2022/06/21 09:20:06;;;;;;;4.85;2.80;;;;;;;17.43;53.36;101029.97;5052626;28;20508;-57
2022/06/21 09:22:47;;;;;;;6.57;3.10;;;;;;;17.38;54.04;101030.75;5063081;28;20037;-57
2022/06/21 09:25:28;;;;;;;6.90;3.05;;;;;;;17.24;53.91;101031.31;5070929;28;20032;-57
2022/06/21 09:28:14;;;;;;;11.02;3.22;;;;;;;17.24;53.32;101028.59;5071030;28;20123;-57
2022/06/21 09:30:45;;;;;;;4.18;2.53;;;;;;;17.11;53.01;101019.75;5072395;28;20043;-57
2022/06/21 09:33:17;;;;;;;6.30;3.25;;;;;;;17.18;52.71;101030.41;5070702;28;20024;-57
2022/06/21 09:36:32;;;;;;;6.45;2.78;;;;;;;17.06;53.19;101027.78;5071859;28;20032;-57
2022/06/21 09:39:26;;;;;;;4.85;2.70;;;;;;;17.01;53.07;101022.28;5071366;28;20037;-58
2022/06/21 09:42:04;;;;;;;4.28;2.40;;;;;;;17.05;52.50;101028.03;5071887;28;20017;-57
2022/06/21 09:44:44;;;;;;;7.47;2.63;;;;;;;17.17;52.15;101025.25;5071102;28;20473;-58
2022/06/21 09:47:17;;;;;;;8.07;3.20;;;;;;;17.32;50.92;101029.03;5069268;28;20116;-58
2022/06/21 09:49:47;;;;;;;4.55;2.80;;;;;;;16.41;52.61;101028.16;5070932;28;20039;-57
2022/06/21 09:52:41;;;;;;;4.75;2.70;;;;;;;16.77;52.07;101018.06;5069811;28;20024;-57
2022/06/21 09:55:40;;;;;;;3.85;2.38;;;;;;;17.07;51.15;101015.91;5072214;28;20048;-57
2022/06/21 09:58:15;;;;;;;4.18;2.65;;;;;;;16.92;51.41;101017.50;5069852;28;20068;-57
2022/06/21 10:00:52;;;;;;;5.05;2.67;;;;;;;16.61;52.29;101014.22;5071442;28;20028;-58
2022/06/21 10:03:59;;;;;;;9.10;2.60;;;;;;;16.40;52.55;101012.19;5070951;28;20021;-57
2022/06/21 10:06:28;;;;;;;2.90;2.22;;;;;;;16.67;51.87;101007.03;5070221;28;20032;-57
2022/06/21 10:09:06;;;;;;;5.50;2.33;;;;;;;16.66;51.32;101008.06;5071434;28;20059;-57
2022/06/21 10:11:57;;;;;;;6.95;2.65;;;;;;;16.64;52.11;101013.72;5070232;28;20025;-57
2022/06/21 10:14:44;;;;;;;4.90;2.17;;;;;;;16.75;51.92;101009.38;5069947;28;20028;-57
2022/06/21 10:17:59;;;;;;;3.95;2.47;;;;;;;16.89;50.92;101021.53;5071150;28;20396;-57
2022/06/21 10:21:06;;;;;;;4.22;2.65;;;;;;;16.26;52.98;101025.16;5068874;28;20048;-57
2022/06/21 10:24:06;;;;;;;4.70;2.63;;;;;;;16.46;52.36;101022.03;4970445;28;20034;-57
2022/06/21 10:27:07;;;;;;;4.95;2.83;;;;;;;16.13;52.51;101012.75;4969892;28;20164;-57
2022/06/21 10:30:11;;;;;;;5.10;2.30;;;;;;;16.14;53.19;101010.84;5066190;28;20389;-57
2022/06/21 10:32:46;;;;;;;3.03;2.22;;;;;;;16.22;52.97;101015.91;4970073;28;20058;-57
2022/06/21 10:35:33;;;;;;;5.05;2.58;;;;;;;16.17;52.71;101013.09;5057783;28;20446;-57
2022/06/21 10:38:08;;;;;;;3.38;2.50;;;;;;;16.22;52.28;101011.31;5051612;28;20033;-57
2022/06/21 10:40:49;;;;;;;6.72;2.97;;;;;;;16.24;52.79;101008.38;5058357;28;20492;-58
2022/06/21 10:43:36;;;;;;;3.28;2.42;;;;;;;16.31;52.54;101009.03;5056932;28;20048;-58
2022/06/21 10:46:11;;;;;;;4.90;2.30;;;;;;;16.32;53.01;101013.38;5068393;28;20388;-57
2022/06/21 10:48:56;;;;;;;4.22;2.30;;;;;;;16.34;52.48;101004.00;5069848;28;20033;-57
2022/06/21 10:51:28;;;;;;;6.70;2.78;;;;;;;16.34;52.26;101008.56;5063377;28;20113;-57
2022/06/21 10:54:14;;;;;;;3.75;2.45;;;;;;;16.27;52.57;100999.81;5071240;28;20127;-57
2022/06/21 10:57:14;;;;;;;5.20;2.50;;;;;;;16.32;52.21;101005.28;5070865;28;20024;-57
2022/06/21 11:03:01;;;;;;;3.05;2.15;;;;;;;16.33;52.61;101015.88;5055476;28;20074;-57
2022/06/21 11:05:53;;;;;;;4.03;2.38;;;;;;;16.34;52.40;101012.09;5071272;28;20054;-58
2022/06/21 11:08:50;;;;;;;4.00;2.40;;;;;;;16.33;52.24;101013.16;5054565;28;20040;-57
2022/06/21 11:11:37;;;;;;;4.32;2.17;;;;;;;16.33;52.35;101012.34;5050648;28;20029;-57
2022/06/21 11:14:19;;;;;;;2.92;2.35;;;;;;;16.37;52.65;101014.28;5065833;28;20032;-57
2022/06/21 11:17:10;;;;;;;4.22;2.40;;;;;;;16.27;52.67;101018.72;5051165;28;20025;-57
2022/06/21 11:20:29;;;;;;;3.67;2.20;;;;;;;16.25;52.74;101020.81;5051100;28;20450;-57
2022/06/21 11:23:10;;;;;;;3.88;2.30;;;;;;;16.28;52.42;101015.75;4989543;28;20030;-57
2022/06/21 11:25:48;;;;;;;6.07;3.33;;;;;;;16.27;52.07;101010.59;4989462;28;20486;-57
2022/06/21 11:28:39;;;;;;;3.75;2.63;;;;;;;16.24;52.48;101016.47;5039352;28;20487;-58
2022/06/21 11:31:22;;;;;;;3.50;2.40;;;;;;;16.27;52.37;101016.81;5066724;28;20032;-57
2022/06/21 11:34:19;;;;;;;5.03;2.72;;;;;;;16.26;52.64;101014.34;5074768;28;20103;-57
2022/06/21 11:37:03;;;;;;;6.55;2.40;;;;;;;16.21;52.53;101019.63;5074639;28;20077;-57
2022/06/21 11:45:50;;;;;;;4.35;2.70;;;;;;;16.15;52.64;101016.00;5095910;28;19919;-55
2022/06/21 11:48:43;;;;;;;6.68;2.60;;;;;;;16.15;52.73;101012.50;5096192;28;20052;-55
2022/06/21 11:51:10;;;;;;;6.25;2.63;;;;;;;16.16;52.96;101014.97;5095559;28;20031;-55
2022/06/21 11:53:43;;;;;;;3.72;2.50;;;;;;;16.12;53.18;101010.28;5096322;28;20478;-55
2022/06/21 11:56:25;;;;;;;4.88;2.47;;;;;;;16.07;53.04;101009.09;5095538;28;20495;-56
2022/06/21 11:58:58;;;;;;;7.25;2.50;;;;;;;16.08;53.42;101009.94;5095749;28;20023;-56
2022/06/21 12:01:44;;;;;;;4.30;2.60;;;;;;;16.06;53.16;101007.47;5095726;28;20030;-56
2022/06/21 12:04:31;;;;;;;4.50;2.85;;;;;;;16.14;53.60;101016.25;5095169;28;20035;-56
2022/06/21 12:07:14;;;;;;;7.03;2.72;;;;;;;16.03;53.74;101029.53;5095405;28;20031;-55
2022/06/21 12:09:52;;;;;;;5.15;2.53;;;;;;;15.96;53.82;101026.16;5095907;28;20059;-56
2022/06/21 12:12:26;;;;;;;4.65;2.15;;;;;;;15.97;53.90;101032.38;5095156;28;20128;-56
2022/06/21 12:14:52;;;;;;;4.93;2.63;;;;;;;15.98;53.92;101031.31;5096003;28;20454;-55
2022/06/21 12:17:34;;;;;;;4.55;2.30;;;;;;;15.92;54.23;101029.56;5096026;28;20518;-55
2022/06/21 12:20:09;;;;;;;3.55;2.25;;;;;;;15.97;54.63;101035.06;5095238;28;20028;-56
2022/06/21 12:22:44;;;;;;;6.20;2.25;;;;;;;15.99;54.37;101035.63;5095210;28;20070;-56
2022/06/21 12:25:17;;;;;;;4.68;2.55;;;;;;;15.79;54.95;101038.72;5095057;28;20388;-56
2022/06/21 12:27:44;;;;;;;4.25;2.60;;;;;;;15.77;55.10;101040.84;5094814;28;20021;-56
2022/06/21 12:30:21;;;;;;;4.78;2.40;;;;;;;15.67;55.36;101040.63;5095062;28;20040;-55
2022/06/21 12:32:51;;;;;;;4.30;2.47;;;;;;;15.69;55.30;101043.88;5095089;28;20085;-55
2022/06/21 12:35:20;;;;;;;5.05;2.65;;;;;;;15.64;55.51;101035.69;5094784;28;20475;-56